Time;durP1;ratioP1;P1;durP2;ratioP2;P2;SDS_P1;SDS_P2;PMS_P1;PMS_P2;Temp;Humidity;BMP_temperature;BMP_pressure;BME280_temperature;BME280_humidity;BME280_pressure;Samples;Min_cycle;Max_cycle;Signal;HPM_P1;HPM_P2
2023/06/19 00:00:07;;;;;;;0.20;0.20;;;23.20;99.90;;;;;;5145202;27;20065;-65
2023/06/19 00:02:33;;;;;;;0.30;0.30;;;23.20;99.90;;;;;;5143845;27;20039;-66
2023/06/19 00:04:58;;;;;;;0.30;0.30;;;23.10;99.90;;;;;;5143257;27;20450;-66
2023/06/19 00:07:24;;;;;;;0.25;0.20;;;23.20;99.90;;;;;;5143170;27;20031;-66
2023/06/19 00:09:49;;;;;;;0.25;0.25;;;23.20;99.90;;;;;;5145061;27;20075;-65
2023/06/19 00:12:15;;;;;;;0.63;0.63;;;23.10;99.90;;;;;;5139428;27;20481;-65
2023/06/19 00:14:40;;;;;;;0.93;0.17;;;23.00;99.90;;;;;;5144165;27;20069;-66
2023/06/19 00:17:06;;;;;;;0.15;0.10;;;23.10;99.90;;;;;;5144327;27;20023;-66
2023/06/19 00:19:36;;;;;;;0.40;0.20;;;23.00;99.90;;;;;;5139916;27;20043;-66
2023/06/19 00:22:05;;;;;;;0.08;0.08;;;23.00;99.90;;;;;;5144145;27;20094;-65
2023/06/19 00:24:31;;;;;;;0.52;0.52;;;23.00;99.90;;;;;;5142581;27;20422;-66
2023/06/19 00:27:02;;;;;;;0.25;0.22;;;23.00;99.90;;;;;;5144596;27;20074;-66
2023/06/19 00:29:29;;;;;;;9.30;0.88;;;23.00;99.90;;;;;;5144186;27;20038;-66
2023/06/19 00:31:55;;;;;;;0.40;0.30;;;22.90;99.90;;;;;;5143473;27;20502;-66
2023/06/19 00:34:24;;;;;;;2.38;0.35;;;22.90;99.90;;;;;;5145298;27;20070;-65
2023/06/19 00:36:50;;;;;;;1.08;0.47;;;22.90;99.90;;;;;;5142898;27;20053;-66
2023/06/19 00:39:15;;;;;;;0.10;0.10;;;22.90;99.90;;;;;;5144889;27;20081;-66
2023/06/19 00:41:43;;;;;;;0.15;0.15;;;22.90;99.90;;;;;;5145545;27;20066;-66
2023/06/19 00:44:09;;;;;;;0.17;0.17;;;22.90;99.90;;;;;;5143211;27;20073;-65
2023/06/19 00:46:39;;;;;;;0.35;0.35;;;22.90;99.90;;;;;;5134540;27;20375;-65
2023/06/19 00:49:05;;;;;;;0.70;0.70;;;22.90;99.90;;;;;;5142483;27;20039;-65
2023/06/19 00:51:31;;;;;;;0.00;0.00;;;22.80;99.90;;;;;;5146698;27;20503;-65
2023/06/19 00:53:56;;;;;;;0.40;0.40;;;22.90;99.90;;;;;;5144026;27;20401;-66
2023/06/19 00:56:22;;;;;;;0.00;0.00;;;22.80;99.90;;;;;;5144471;27;20039;-65
2023/06/19 00:58:48;;;;;;;0.38;0.38;;;22.80;99.90;;;;;;5148700;27;20039;-65
2023/06/19 01:01:13;;;;;;;0.05;0.05;;;22.80;99.90;;;;;;5142775;27;20077;-65
2023/06/19 01:03:39;;;;;;;0.10;0.10;;;22.80;99.90;;;;;;5144522;27;20052;-65
2023/06/19 01:06:16;;;;;;;0.10;0.10;;;22.80;99.90;;;;;;5141069;27;20087;-66
2023/06/19 01:08:55;;;;;;;0.20;0.20;;;22.80;99.90;;;;;;5147636;27;20046;-66
2023/06/19 01:11:24;;;;;;;1.95;0.57;;;22.80;99.90;;;;;;5142524;27;20099;-65
2023/06/19 01:14:03;;;;;;;0.47;0.40;;;22.70;99.90;;;;;;5143449;27;20050;-66
2023/06/19 01:16:31;;;;;;;0.95;0.57;;;22.70;99.90;;;;;;5144881;27;20043;-65
2023/06/19 01:18:57;;;;;;;0.60;0.52;;;22.70;99.90;;;;;;5123005;27;20069;-65
2023/06/19 01:21:22;;;;;;;0.52;0.50;;;22.70;99.90;;;;;;5141882;27;20046;-65
2023/06/19 01:23:48;;;;;;;0.03;0.03;;;22.70;99.90;;;;;;5142941;27;20043;-65
2023/06/19 01:26:15;;;;;;;1.95;0.38;;;22.60;99.90;;;;;;5126068;27;20378;-65
2023/06/19 01:28:42;;;;;;;0.88;0.30;;;22.70;99.90;;;;;;5151918;27;20041;-66
2023/06/19 01:31:13;;;;;;;0.22;0.22;;;22.70;99.90;;;;;;5142077;27;20046;-65
2023/06/19 01:33:42;;;;;;;0.40;0.40;;;22.70;99.90;;;;;;5145558;27;20077;-65
2023/06/19 01:36:09;;;;;;;0.20;0.20;;;22.70;99.90;;;;;;5138043;27;20042;-65
2023/06/19 01:38:36;;;;;;;0.00;0.00;;;22.60;99.90;;;;;;5139378;27;20055;-66
2023/06/19 01:41:03;;;;;;;0.30;0.30;;;22.70;99.90;;;;;;5143375;27;20035;-66
2023/06/19 01:43:31;;;;;;;0.43;0.43;;;22.70;99.90;;;;;;5139764;27;20125;-65
2023/06/19 01:45:57;;;;;;;0.93;0.47;;;22.70;99.90;;;;;;5143297;27;20121;-65
2023/06/19 01:48:23;;;;;;;0.35;0.35;;;22.60;99.90;;;;;;5125742;27;20125;-65
2023/06/19 01:50:50;;;;;;;0.57;0.57;;;22.60;99.90;;;;;;5145172;27;20038;-65
2023/06/19 01:53:16;;;;;;;0.70;0.52;;;22.60;99.90;;;;;;5139998;27;20095;-66
2023/06/19 01:55:42;;;;;;;0.10;0.10;;;22.60;99.90;;;;;;5144071;27;20023;-65
2023/06/19 01:58:07;;;;;;;0.28;0.22;;;22.60;99.90;;;;;;5126603;27;20042;-65
2023/06/19 02:00:37;;;;;;;0.25;0.25;;;22.60;99.90;;;;;;5141184;27;20142;-65
2023/06/19 02:03:03;;;;;;;1.40;0.50;;;22.60;99.90;;;;;;5140728;27;20035;-65
2023/06/19 02:05:32;;;;;;;0.38;0.38;;;22.60;99.90;;;;;;5142717;27;20095;-65
2023/06/19 02:07:58;;;;;;;0.17;0.13;;;22.60;99.90;;;;;;5141638;27;20427;-66
2023/06/19 02:10:23;;;;;;;0.00;0.00;;;22.60;99.90;;;;;;5139716;27;20046;-65
2023/06/19 02:12:49;;;;;;;0.10;0.10;;;22.60;99.90;;;;;;5136405;27;20137;-65
2023/06/19 02:15:15;;;;;;;1.48;0.70;;;22.60;99.90;;;;;;5143079;27;20043;-65
2023/06/19 02:17:42;;;;;;;0.10;0.10;;;22.60;99.90;;;;;;5150235;27;20039;-65
2023/06/19 02:20:11;;;;;;;0.28;0.28;;;22.60;99.90;;;;;;5150130;27;20439;-65
2023/06/19 02:22:38;;;;;;;0.10;0.10;;;22.60;99.90;;;;;;5145918;27;20058;-65
2023/06/19 02:25:04;;;;;;;0.10;0.10;;;22.60;99.90;;;;;;5145370;27;20505;-65
2023/06/19 02:27:29;;;;;;;0.00;0.00;;;22.60;99.90;;;;;;5144721;27;20473;-65
2023/06/19 02:29:55;;;;;;;0.95;0.63;;;22.50;99.90;;;;;;5146454;27;20126;-65
2023/06/19 02:32:20;;;;;;;0.43;0.43;;;22.50;99.90;;;;;;5146441;27;20106;-65
2023/06/19 02:34:46;;;;;;;0.00;0.00;;;22.50;99.90;;;;;;5141856;27;20074;-65
2023/06/19 02:37:11;;;;;;;0.00;0.00;;;22.50;99.90;;;;;;5147664;27;20041;-65
2023/06/19 02:39:37;;;;;;;0.57;0.57;;;22.50;99.90;;;;;;5149207;27;20038;-65
2023/06/19 02:42:04;;;;;;;0.15;0.10;;;22.50;99.90;;;;;;5127657;27;20389;-65
2023/06/19 02:44:30;;;;;;;1.23;0.73;;;22.50;99.90;;;;;;5148281;27;20046;-66
2023/06/19 02:46:55;;;;;;;0.90;0.30;;;22.50;99.90;;;;;;5146637;27;20461;-66
2023/06/19 02:49:21;;;;;;;1.83;0.52;;;22.50;99.90;;;;;;5144140;27;20521;-66
2023/06/19 02:51:46;;;;;;;0.88;0.80;;;22.50;99.90;;;;;;5148029;27;20078;-66
2023/06/19 02:54:12;;;;;;;0.17;0.17;;;22.50;99.90;;;;;;5144323;27;20050;-65
2023/06/19 02:56:38;;;;;;;0.17;0.17;;;22.50;99.90;;;;;;5146075;27;20042;-66
2023/06/19 02:59:04;;;;;;;4.72;0.40;;;22.50;99.90;;;;;;5147975;27;20393;-66
2023/06/19 03:01:29;;;;;;;0.90;0.40;;;22.50;99.90;;;;;;5145974;27;20054;-66
2023/06/19 03:03:55;;;;;;;0.10;0.10;;;22.50;99.90;;;;;;5147783;27;20389;-66
2023/06/19 03:06:21;;;;;;;0.70;0.47;;;22.40;99.90;;;;;;5127900;27;20051;-66
2023/06/19 03:08:46;;;;;;;0.47;0.30;;;22.40;99.90;;;;;;5132084;27;20449;-66
2023/06/19 03:11:13;;;;;;;0.38;0.22;;;22.40;99.90;;;;;;5146786;27;20042;-66
2023/06/19 03:13:52;;;;;;;0.13;0.13;;;22.30;99.90;;;;;;5148183;27;20039;-66
2023/06/19 03:16:18;;;;;;;0.20;0.20;;;22.30;99.90;;;;;;5148328;27;20370;-66
2023/06/19 03:18:44;;;;;;;0.20;0.20;;;22.30;99.90;;;;;;5141557;27;20171;-66
2023/06/19 03:21:14;;;;;;;0.57;0.57;;;22.20;99.90;;;;;;5153171;27;20090;-66
2023/06/19 03:23:42;;;;;;;0.65;0.65;;;22.20;99.90;;;;;;5146519;27;20077;-65
2023/06/19 03:26:10;;;;;;;0.38;0.38;;;22.10;99.90;;;;;;5144041;27;20398;-66
2023/06/19 03:28:35;;;;;;;0.08;0.08;;;22.10;99.90;;;;;;5145763;27;20515;-66
2023/06/19 03:31:02;;;;;;;0.10;0.10;;;22.10;99.90;;;;;;5145212;27;20153;-66
2023/06/19 03:33:27;;;;;;;0.60;0.47;;;22.10;99.90;;;;;;5147252;27;20087;-66
2023/06/19 03:35:53;;;;;;;0.05;0.05;;;22.00;99.90;;;;;;5146599;27;20126;-66
2023/06/19 03:38:18;;;;;;;0.10;0.10;;;22.00;99.90;;;;;;5150711;27;20118;-66
2023/06/19 03:40:44;;;;;;;0.38;0.38;;;22.00;99.90;;;;;;5143500;27;20039;-66
2023/06/19 03:43:10;;;;;;;0.52;0.52;;;21.90;99.90;;;;;;5142683;27;20039;-65
2023/06/19 03:45:36;;;;;;;0.80;0.28;;;21.90;99.90;;;;;;5136840;27;20039;-66
2023/06/19 03:48:02;;;;;;;0.30;0.30;;;21.80;99.90;;;;;;5143567;27;20502;-66
2023/06/19 03:50:27;;;;;;;1.65;0.38;;;21.80;99.90;;;;;;5146865;27;20087;-66
2023/06/19 03:52:53;;;;;;;1.00;0.43;;;21.70;99.90;;;;;;5141442;27;20439;-66
2023/06/19 03:55:19;;;;;;;0.20;0.10;;;21.60;99.90;;;;;;5140558;27;20050;-66
2023/06/19 03:57:44;;;;;;;0.52;0.43;;;21.50;99.90;;;;;;5146633;27;20037;-66
2023/06/19 04:00:12;;;;;;;0.35;0.32;;;21.50;99.90;;;;;;5146242;27;20030;-66
2023/06/19 04:02:39;;;;;;;0.00;0.00;;;21.50;99.90;;;;;;5143434;27;20058;-66
2023/06/19 04:05:05;;;;;;;0.00;0.00;;;21.40;99.90;;;;;;5124095;27;20470;-66
2023/06/19 04:07:31;;;;;;;0.00;0.00;;;21.40;99.90;;;;;;5144862;27;20092;-66
2023/06/19 04:09:58;;;;;;;0.00;0.00;;;21.40;99.90;;;;;;5142921;27;20027;-66
2023/06/19 04:12:23;;;;;;;0.00;0.00;;;21.40;99.90;;;;;;5145626;27;20043;-66
2023/06/19 04:14:49;;;;;;;0.10;0.10;;;21.40;99.90;;;;;;5145948;27;20047;-66
2023/06/19 04:17:15;;;;;;;0.00;0.00;;;21.40;99.90;;;;;;5144028;27;20039;-66
2023/06/19 04:19:41;;;;;;;0.00;0.00;;;21.40;99.90;;;;;;5138427;27;20043;-66
2023/06/19 04:22:07;;;;;;;2.50;0.30;;;21.40;99.90;;;;;;5146074;27;20038;-66
2023/06/19 04:24:32;;;;;;;0.15;0.13;;;21.40;99.90;;;;;;5146273;27;20039;-66
2023/06/19 04:26:58;;;;;;;0.00;0.00;;;21.40;99.90;;;;;;5143377;27;20039;-66
2023/06/19 04:29:23;;;;;;;2.65;0.43;;;21.50;99.90;;;;;;5143591;27;20478;-66
2023/06/19 04:31:49;;;;;;;1.65;0.98;;;21.40;99.90;;;;;;5145213;27;20046;-66
2023/06/19 04:34:21;;;;;;;0.10;0.05;;;21.40;99.90;;;;;;5144530;27;20031;-66
2023/06/19 04:36:47;;;;;;;0.00;0.00;;;21.50;99.90;;;;;;5152717;27;20067;-66
2023/06/19 04:39:14;;;;;;;0.20;0.20;;;21.50;99.90;;;;;;5142476;27;20035;-66
2023/06/19 04:41:41;;;;;;;0.00;0.00;;;21.50;99.90;;;;;;5142145;27;20733;-66
2023/06/19 04:44:07;;;;;;;0.47;0.47;;;21.50;99.90;;;;;;5132990;27;20128;-66
2023/06/19 04:46:33;;;;;;;0.00;0.00;;;21.50;99.90;;;;;;5142739;27;20038;-66
2023/06/19 04:48:58;;;;;;;0.00;0.00;;;21.60;99.90;;;;;;5142119;27;20039;-66
2023/06/19 04:51:26;;;;;;;2.67;0.77;;;21.60;99.90;;;;;;5145737;27;20393;-66
2023/06/19 04:53:52;;;;;;;0.52;0.52;;;21.50;99.90;;;;;;5142344;27;20482;-66
2023/06/19 04:56:17;;;;;;;0.00;0.00;;;21.60;99.90;;;;;;5142565;27;20477;-66
2023/06/19 04:58:47;;;;;;;0.28;0.17;;;21.60;99.90;;;;;;5148528;27;20062;-66
2023/06/19 05:01:13;;;;;;;0.10;0.10;;;21.60;99.90;;;;;;5142453;27;20071;-66
2023/06/19 05:03:40;;;;;;;0.40;0.40;;;21.60;99.90;;;;;;5146030;27;20042;-66
2023/06/19 05:06:05;;;;;;;0.10;0.10;;;21.60;99.90;;;;;;5145683;27;20034;-66
2023/06/19 05:08:31;;;;;;;0.65;0.30;;;21.60;99.90;;;;;;5142945;27;20075;-66
2023/06/19 05:10:57;;;;;;;0.70;0.38;;;21.50;99.90;;;;;;5143593;27;20035;-66
2023/06/19 05:13:23;;;;;;;0.00;0.00;;;21.50;99.90;;;;;;5142045;27;20038;-66
2023/06/19 05:15:50;;;;;;;0.00;0.00;;;21.60;99.90;;;;;;5140606;27;20034;-66
2023/06/19 05:18:16;;;;;;;0.80;0.63;;;21.50;99.90;;;;;;5142315;27;20036;-66
2023/06/19 05:20:42;;;;;;;0.75;0.75;;;21.50;99.90;;;;;;5143372;27;20043;-66
2023/06/19 05:23:08;;;;;;;0.90;0.65;;;21.40;99.90;;;;;;5144525;27;20049;-67
2023/06/19 05:25:33;;;;;;;1.45;0.73;;;21.30;99.90;;;;;;5151478;27;20065;-67
2023/06/19 05:27:59;;;;;;;0.10;0.10;;;21.30;99.90;;;;;;5144019;27;20031;-67
2023/06/19 05:30:24;;;;;;;0.10;0.10;;;21.30;99.90;;;;;;5144620;27;20137;-66
2023/06/19 05:32:50;;;;;;;0.15;0.15;;;21.40;99.90;;;;;;5142499;27;20398;-66
2023/06/19 05:35:16;;;;;;;1.10;1.00;;;21.50;99.90;;;;;;5141489;27;20039;-66
2023/06/19 05:37:43;;;;;;;1.55;0.60;;;21.50;99.90;;;;;;5141105;27;20371;-66
2023/06/19 05:40:09;;;;;;;1.73;0.75;;;21.50;99.90;;;;;;5126320;27;20102;-66
2023/06/19 05:42:36;;;;;;;1.35;0.95;;;21.50;99.90;;;;;;5132152;27;20099;-67
2023/06/19 05:45:02;;;;;;;1.30;0.93;;;21.40;99.90;;;;;;5125227;27;20050;-67
2023/06/19 05:47:30;;;;;;;0.95;0.95;;;21.50;99.90;;;;;;5140304;27;20043;-66
2023/06/19 05:49:56;;;;;;;5.13;0.80;;;21.50;99.90;;;;;;5146595;27;20034;-66
2023/06/19 05:52:22;;;;;;;0.95;0.68;;;21.50;99.90;;;;;;5140682;27;20393;-66
2023/06/19 05:54:47;;;;;;;0.52;0.47;;;21.50;99.90;;;;;;5145992;27;20039;-67
2023/06/19 05:57:15;;;;;;;1.63;0.95;;;21.50;99.90;;;;;;5137850;27;20058;-66
2023/06/19 05:59:41;;;;;;;0.28;0.28;;;21.50;99.90;;;;;;5146775;27;20487;-66
2023/06/19 06:02:07;;;;;;;0.93;0.93;;;21.50;99.90;;;;;;5140509;27;20478;-67
2023/06/19 06:04:34;;;;;;;0.20;0.20;;;21.40;99.90;;;;;;5141940;27;20056;-66
2023/06/19 06:07:00;;;;;;;3.20;2.58;;;21.40;99.90;;;;;;5137811;27;20441;-66
2023/06/19 06:09:26;;;;;;;5.00;2.55;;;21.30;99.90;;;;;;5143439;27;20035;-66
2023/06/19 06:11:52;;;;;;;2.42;2.22;;;21.30;99.90;;;;;;5146526;27;20096;-66
2023/06/19 06:14:18;;;;;;;8.95;3.60;;;21.20;99.90;;;;;;5140623;27;20402;-65
2023/06/19 06:16:43;;;;;;;1.35;1.25;;;21.20;99.90;;;;;;5142632;27;20041;-66
2023/06/19 06:19:09;;;;;;;0.65;0.32;;;21.10;99.90;;;;;;5140604;27;20046;-66
2023/06/19 06:21:34;;;;;;;2.45;1.67;;;21.20;99.90;;;;;;5136361;27;20047;-66
2023/06/19 06:24:00;;;;;;;7.32;4.30;;;21.10;99.90;;;;;;5140728;27;20482;-66
2023/06/19 06:26:27;;;;;;;2.60;1.17;;;21.20;99.90;;;;;;5122039;28;20047;-66
2023/06/19 06:28:53;;;;;;;2.90;0.73;;;21.20;99.90;;;;;;5142391;27;20058;-67
2023/06/19 06:31:19;;;;;;;2.85;1.90;;;21.20;99.90;;;;;;5131906;27;20093;-66
2023/06/19 06:33:45;;;;;;;1.73;1.63;;;21.20;99.90;;;;;;5140226;27;20461;-66
2023/06/19 06:36:10;;;;;;;0.68;0.65;;;21.20;99.90;;;;;;5140934;27;20401;-66
2023/06/19 06:38:36;;;;;;;5.45;1.73;;;21.30;99.90;;;;;;5141034;27;20047;-66
2023/06/19 06:41:02;;;;;;;2.55;2.40;;;21.30;99.90;;;;;;5139321;27;20470;-66
2023/06/19 06:43:28;;;;;;;5.03;2.38;;;21.30;99.90;;;;;;5152264;27;20085;-66
2023/06/19 06:45:53;;;;;;;1.67;1.23;;;21.20;99.90;;;;;;5144377;27;20087;-66
2023/06/19 06:48:19;;;;;;;1.05;0.77;;;21.10;99.90;;;;;;5145979;27;20131;-66
2023/06/19 06:50:44;;;;;;;0.77;0.75;;;21.10;99.90;;;;;;5140969;27;20066;-66
2023/06/19 06:53:10;;;;;;;0.90;0.68;;;21.00;99.90;;;;;;5141476;27;20043;-66
2023/06/19 06:55:35;;;;;;;4.55;2.20;;;20.80;99.90;;;;;;5147071;27;20431;-66
2023/06/19 06:58:01;;;;;;;2.55;1.55;;;20.70;99.90;;;;;;5145406;27;20046;-66
2023/06/19 07:00:27;;;;;;;2.50;1.63;;;20.60;99.90;;;;;;5142235;27;20035;-66
2023/06/19 07:02:53;;;;;;;4.57;1.38;;;20.60;99.90;;;;;;5141634;27;20043;-66
2023/06/19 07:05:18;;;;;;;1.90;1.48;;;20.50;99.90;;;;;;5145544;27;20045;-66
2023/06/19 07:07:44;;;;;;;0.75;0.75;;;20.50;99.90;;;;;;5144602;27;20091;-66
2023/06/19 07:10:10;;;;;;;0.95;0.90;;;20.40;99.90;;;;;;5145106;27;20474;-66
2023/06/19 07:12:43;;;;;;;0.38;0.38;;;20.40;99.90;;;;;;5141479;27;20046;-66
2023/06/19 07:15:09;;;;;;;3.33;1.35;;;20.30;99.90;;;;;;5127581;27;20561;-66
2023/06/19 07:17:35;;;;;;;2.80;1.50;;;20.30;99.90;;;;;;5145305;27;20031;-66
2023/06/19 07:20:00;;;;;;;7.28;1.02;;;20.30;99.90;;;;;;5141858;27;20487;-66
2023/06/19 07:22:26;;;;;;;0.98;0.98;;;20.30;99.90;;;;;;5144858;27;20075;-66
2023/06/19 07:24:51;;;;;;;1.65;0.93;;;20.30;99.90;;;;;;5144867;27;20034;-66
2023/06/19 07:27:17;;;;;;;1.05;1.05;;;20.20;99.90;;;;;;5143956;27;20043;-66
2023/06/19 07:29:44;;;;;;;3.33;2.15;;;20.30;99.90;;;;;;5144990;27;20054;-66
2023/06/19 07:32:10;;;;;;;3.00;1.33;;;20.30;99.90;;;;;;5145179;27;20447;-66
2023/06/19 07:34:36;;;;;;;1.38;1.15;;;20.30;99.90;;;;;;5118924;27;20051;-66
2023/06/19 07:37:01;;;;;;;2.05;1.25;;;20.20;99.90;;;;;;5144529;27;20039;-66
2023/06/19 07:39:27;;;;;;;3.83;1.85;;;20.20;99.90;;;;;;5125859;27;20042;-66
2023/06/19 07:41:52;;;;;;;0.50;0.50;;;20.10;99.90;;;;;;5144298;27;20039;-66
2023/06/19 07:44:20;;;;;;;1.63;0.88;;;20.00;99.90;;;;;;5146074;27;20051;-66
2023/06/19 07:46:46;;;;;;;1.88;1.15;;;20.00;99.90;;;;;;5142787;27;20133;-66
2023/06/19 07:49:12;;;;;;;9.77;3.08;;;20.10;99.90;;;;;;5129884;27;20137;-66
2023/06/19 07:51:37;;;;;;;0.77;0.77;;;20.00;99.90;;;;;;5143728;27;20035;-66
2023/06/19 07:54:03;;;;;;;0.10;0.10;;;20.00;99.90;;;;;;5153205;27;20038;-66
2023/06/19 07:56:29;;;;;;;0.65;0.65;;;19.90;99.90;;;;;;5146223;27;20103;-67
2023/06/19 07:58:54;;;;;;;0.40;0.40;;;20.00;99.90;;;;;;5148871;27;20031;-66
2023/06/19 08:01:20;;;;;;;0.43;0.43;;;19.90;99.90;;;;;;5142904;27;20043;-66
2023/06/19 08:03:45;;;;;;;2.25;1.98;;;19.90;99.90;;;;;;5148807;27;20493;-66
2023/06/19 08:06:11;;;;;;;0.17;0.17;;;19.80;99.90;;;;;;5143221;27;20035;-66
2023/06/19 08:08:37;;;;;;;0.52;0.52;;;19.80;99.90;;;;;;5149022;27;20042;-67
2023/06/19 08:11:02;;;;;;;1.10;1.02;;;19.70;99.90;;;;;;5148408;27;20045;-66
2023/06/19 08:13:28;;;;;;;0.60;0.50;;;19.70;99.90;;;;;;5140369;27;20427;-66
2023/06/19 08:15:54;;;;;;;1.55;1.30;;;19.70;99.90;;;;;;5146576;27;20043;-65
2023/06/19 08:18:19;;;;;;;0.38;0.38;;;19.70;99.90;;;;;;5151191;27;20133;-65
2023/06/19 08:20:45;;;;;;;0.25;0.22;;;19.60;99.90;;;;;;5143711;27;20578;-65
2023/06/19 08:23:11;;;;;;;0.90;0.63;;;19.60;99.90;;;;;;5150380;27;20486;-65
2023/06/19 08:25:36;;;;;;;0.52;0.52;;;19.60;99.90;;;;;;5130891;27;20055;-65
2023/06/19 08:28:02;;;;;;;0.15;0.15;;;19.70;99.90;;;;;;5145633;27;20114;-65
2023/06/19 08:30:27;;;;;;;0.77;0.57;;;19.70;99.90;;;;;;5128194;27;20081;-65
2023/06/19 08:32:53;;;;;;;0.10;0.10;;;19.70;99.90;;;;;;5144553;27;20046;-65
2023/06/19 08:35:18;;;;;;;0.88;0.80;;;19.60;99.90;;;;;;5142375;27;20465;-66
2023/06/19 08:37:44;;;;;;;0.90;0.55;;;19.60;99.90;;;;;;5145550;27;20121;-66
2023/06/19 08:40:11;;;;;;;0.52;0.52;;;19.70;99.90;;;;;;5151071;27;20045;-65
2023/06/19 08:42:38;;;;;;;0.65;0.32;;;19.70;99.90;;;;;;5124124;27;20043;-65
2023/06/19 08:45:06;;;;;;;1.13;1.10;;;19.70;99.90;;;;;;5141580;27;20043;-65
2023/06/19 08:47:33;;;;;;;0.52;0.52;;;19.70;99.90;;;;;;5141940;27;20031;-65
2023/06/19 08:49:59;;;;;;;0.95;0.95;;;19.70;99.90;;;;;;5141957;27;20410;-66
2023/06/19 08:52:25;;;;;;;0.30;0.30;;;19.70;99.90;;;;;;5144333;27;20035;-65
2023/06/19 08:54:50;;;;;;;2.25;1.00;;;19.80;99.90;;;;;;5150791;27;20046;-66
2023/06/19 08:57:16;;;;;;;1.10;0.52;;;19.80;99.90;;;;;;5145594;27;20042;-65
2023/06/19 08:59:51;;;;;;;3.70;1.58;;;19.80;99.90;;;;;;5142990;27;20073;-65
2023/06/19 09:02:17;;;;;;;1.17;1.10;;;19.80;99.90;;;;;;5144056;27;20046;-66
2023/06/19 09:04:42;;;;;;;1.15;0.52;;;19.90;99.90;;;;;;5144777;27;20034;-65
2023/06/19 09:07:08;;;;;;;6.47;2.58;;;19.90;99.90;;;;;;5145732;27;20495;-65
2023/06/19 09:09:34;;;;;;;0.20;0.20;;;19.80;99.90;;;;;;5143165;27;20045;-65
2023/06/19 09:12:05;;;;;;;0.43;0.43;;;19.90;99.90;;;;;;5139955;27;20039;-65
2023/06/19 09:14:39;;;;;;;0.10;0.10;;;19.90;99.90;;;;;;5129471;27;20059;-65
2023/06/19 09:17:06;;;;;;;0.93;0.82;;;20.00;99.90;;;;;;5145042;27;20393;-65
2023/06/19 09:19:35;;;;;;;0.10;0.10;;;20.00;99.90;;;;;;5143957;27;20051;-65
2023/06/19 09:22:06;;;;;;;0.55;0.55;;;19.90;99.90;;;;;;5141384;27;20043;-65
2023/06/19 09:24:39;;;;;;;0.25;0.25;;;19.90;99.90;;;;;;5140336;27;20414;-65
2023/06/19 09:27:17;;;;;;;0.65;0.20;;;19.90;99.90;;;;;;5149059;27;20494;-66
2023/06/19 09:29:48;;;;;;;0.43;0.43;;;20.00;99.90;;;;;;5144376;27;20058;-65
2023/06/19 09:32:24;;;;;;;0.32;0.32;;;19.90;99.90;;;;;;5141731;27;20565;-66
2023/06/19 09:34:52;;;;;;;0.45;0.45;;;19.90;99.90;;;;;;5146239;27;20047;-66
2023/06/19 09:37:28;;;;;;;0.25;0.25;;;19.90;99.90;;;;;;5141857;27;20043;-66
2023/06/19 09:39:59;;;;;;;0.03;0.03;;;19.90;99.90;;;;;;5140285;27;20426;-66
2023/06/19 09:42:31;;;;;;;3.30;0.73;;;19.90;99.90;;;;;;5142482;27;20039;-66
2023/06/19 09:45:05;;;;;;;0.85;0.85;;;19.90;99.90;;;;;;5152408;27;20034;-66
2023/06/19 09:47:35;;;;;;;0.63;0.63;;;19.90;99.90;;;;;;5141449;27;20050;-66
2023/06/19 09:50:01;;;;;;;0.75;0.50;;;19.90;99.90;;;;;;5141347;27;20035;-66
2023/06/19 09:52:27;;;;;;;1.83;1.45;;;19.90;99.90;;;;;;5143357;27;20046;-66
2023/06/19 09:54:55;;;;;;;1.17;1.00;;;19.90;99.90;;;;;;5139244;27;20045;-66
2023/06/19 09:57:21;;;;;;;1.55;1.23;;;19.90;99.90;;;;;;5141971;27;20060;-66
2023/06/19 09:59:49;;;;;;;0.13;0.13;;;19.90;99.90;;;;;;5146538;27;20599;-66
2023/06/19 10:02:17;;;;;;;0.50;0.50;;;20.10;99.90;;;;;;5145307;27;20067;-67
2023/06/19 10:04:52;;;;;;;0.80;0.77;;;20.20;99.90;;;;;;5140853;27;20084;-66
2023/06/19 10:07:29;;;;;;;6.78;1.35;;;20.50;99.90;;;;;;5141174;27;20050;-66
2023/06/19 10:10:24;;;;;;;1.27;1.17;;;20.90;99.90;;;;;;5143305;27;20039;-65
2023/06/19 10:12:50;;;;;;;0.75;0.75;;;21.20;99.90;;;;;;5115578;27;20570;-65
2023/06/19 10:15:40;;;;;;;1.20;0.85;;;21.40;99.90;;;;;;5144147;27;20039;-65
2023/06/19 10:18:07;;;;;;;0.30;0.30;;;21.40;99.90;;;;;;5141004;27;20378;-64
2023/06/19 10:20:33;;;;;;;0.70;0.40;;;21.40;99.90;;;;;;5141158;27;20118;-65
2023/06/19 10:23:07;;;;;;;4.63;2.42;;;21.30;99.90;;;;;;5137773;27;20038;-66
2023/06/19 10:25:40;;;;;;;0.13;0.13;;;21.30;99.90;;;;;;5141149;27;20138;-65
2023/06/19 10:28:24;;;;;;;8.25;1.48;;;21.60;99.90;;;;;;5140680;27;20035;-65
2023/06/19 10:30:55;;;;;;;0.30;0.30;;;21.80;99.90;;;;;;5126444;27;20402;-65
2023/06/19 10:33:21;;;;;;;1.05;0.95;;;21.70;99.90;;;;;;5142707;27;20100;-65
2023/06/19 10:35:47;;;;;;;0.90;0.85;;;21.60;99.90;;;;;;5144203;27;20066;-65
2023/06/19 10:38:15;;;;;;;0.17;0.17;;;21.50;99.90;;;;;;5143208;27;20087;-65
2023/06/19 10:40:42;;;;;;;0.73;0.73;;;21.30;99.90;;;;;;5129342;27;20099;-65
2023/06/19 10:43:07;;;;;;;6.75;0.70;;;21.20;99.90;;;;;;5129778;27;20047;-65
2023/06/19 10:45:33;;;;;;;0.40;0.40;;;21.10;99.90;;;;;;5148285;27;20500;-65
2023/06/19 10:48:04;;;;;;;0.68;0.68;;;20.90;99.90;;;;;;5145026;27;20035;-64
2023/06/19 10:50:35;;;;;;;1.50;1.00;;;20.80;99.90;;;;;;5155434;27;20099;-65
2023/06/19 10:53:01;;;;;;;1.17;1.08;;;20.90;99.90;;;;;;5147501;27;20478;-65
2023/06/19 10:55:26;;;;;;;1.92;1.70;;;20.80;99.90;;;;;;5140058;27;20100;-64
2023/06/19 10:57:52;;;;;;;1.20;1.10;;;20.80;99.90;;;;;;5149111;27;20031;-65
2023/06/19 11:00:30;;;;;;;1.30;1.20;;;20.80;99.90;;;;;;5148577;27;20050;-65
2023/06/19 11:02:57;;;;;;;0.30;0.30;;;20.90;99.90;;;;;;5144881;27;20043;-65
2023/06/19 11:05:25;;;;;;;1.25;1.15;;;20.90;99.90;;;;;;5151364;27;20050;-65
2023/06/19 11:07:52;;;;;;;0.95;0.95;;;21.00;99.90;;;;;;5140169;27;20071;-65
2023/06/19 11:10:22;;;;;;;1.30;0.57;;;21.20;99.90;;;;;;5147837;27;20050;-65
2023/06/19 11:12:49;;;;;;;0.35;0.35;;;21.40;99.90;;;;;;5137396;27;20042;-64
2023/06/19 11:15:15;;;;;;;0.70;0.70;;;21.40;99.90;;;;;;5145734;27;20124;-64
2023/06/19 11:17:40;;;;;;;0.70;0.50;;;21.80;99.90;;;;;;5145611;27;20096;-64
2023/06/19 11:20:13;;;;;;;1.38;1.10;;;21.70;99.90;;;;;;5149936;27;20041;-64
2023/06/19 11:22:41;;;;;;;2.40;1.77;;;21.70;99.90;;;;;;5124882;27;20474;-64
2023/06/19 11:25:08;;;;;;;0.25;0.25;;;21.60;99.90;;;;;;5136371;27;20488;-64
2023/06/19 11:27:36;;;;;;;0.47;0.47;;;21.70;99.90;;;;;;5147412;27;20058;-65
2023/06/19 11:30:04;;;;;;;0.38;0.38;;;21.60;99.90;;;;;;5143229;27;20116;-64
2023/06/19 11:32:32;;;;;;;1.08;0.95;;;21.80;99.90;;;;;;5142846;27;20082;-64
2023/06/19 11:35:04;;;;;;;0.32;0.32;;;22.10;99.90;;;;;;5145353;27;20039;-64
2023/06/19 11:37:29;;;;;;;0.25;0.25;;;22.30;99.90;;;;;;5143132;27;20459;-64
2023/06/19 11:39:57;;;;;;;1.00;0.55;;;22.10;99.90;;;;;;5143113;27;20134;-64
2023/06/19 11:42:25;;;;;;;0.38;0.38;;;22.20;99.90;;;;;;5134791;27;20122;-64
2023/06/19 11:44:54;;;;;;;0.10;0.10;;;22.40;99.90;;;;;;5147161;27;20057;-65
2023/06/19 11:47:20;;;;;;;0.70;0.63;;;22.50;99.90;;;;;;5145159;27;20054;-65
2023/06/19 11:49:49;;;;;;;0.30;0.28;;;22.50;99.90;;;;;;5143613;27;20092;-64
2023/06/19 11:52:15;;;;;;;0.47;0.47;;;22.40;99.90;;;;;;5145096;27;20522;-64
2023/06/19 11:54:40;;;;;;;1.85;0.90;;;22.70;99.90;;;;;;5142611;27;20035;-65
2023/06/19 11:57:06;;;;;;;0.52;0.52;;;22.90;99.90;;;;;;5145667;27;20120;-65
2023/06/19 11:59:31;;;;;;;1.42;0.90;;;23.10;99.90;;;;;;5145130;27;20121;-64
2023/06/19 12:01:59;;;;;;;0.82;0.80;;;23.20;99.90;;;;;;5145712;27;20046;-64
2023/06/19 12:04:25;;;;;;;0.38;0.38;;;23.30;99.90;;;;;;5125956;27;20092;-64
2023/06/19 12:06:52;;;;;;;0.00;0.00;;;23.40;99.90;;;;;;5144271;27;20046;-64
2023/06/19 12:09:17;;;;;;;0.28;0.28;;;23.60;99.90;;;;;;5150180;27;20110;-65
2023/06/19 12:11:43;;;;;;;1.65;0.45;;;24.10;99.90;;;;;;5143238;27;20138;-64
2023/06/19 12:14:09;;;;;;;1.27;0.60;;;24.20;99.90;;;;;;5136132;27;20062;-65
2023/06/19 12:16:34;;;;;;;0.73;0.73;;;24.40;99.90;;;;;;5144077;27;20095;-64
2023/06/19 12:19:00;;;;;;;0.47;0.47;;;24.60;99.90;;;;;;5141343;27;20487;-65
2023/06/19 12:21:25;;;;;;;0.08;0.08;;;24.70;99.90;;;;;;5139962;27;20088;-64
2023/06/19 12:23:51;;;;;;;0.40;0.32;;;24.90;99.90;;;;;;5145510;27;20039;-65
2023/06/19 12:26:16;;;;;;;1.30;0.95;;;25.00;99.90;;;;;;5144752;27;20038;-65
2023/06/19 12:28:42;;;;;;;0.00;0.00;;;24.60;99.90;;;;;;5143235;27;20089;-64
2023/06/19 12:31:08;;;;;;;1.02;0.70;;;24.60;99.90;;;;;;5146368;27;20047;-65
2023/06/19 12:33:33;;;;;;;0.93;0.20;;;24.70;99.90;;;;;;5141471;27;20050;-65
2023/06/19 12:36:00;;;;;;;0.08;0.08;;;24.80;99.90;;;;;;5148309;27;20071;-65
2023/06/19 12:38:26;;;;;;;0.20;0.20;;;25.10;99.90;;;;;;5142502;27;20112;-65
2023/06/19 12:40:52;;;;;;;1.27;0.30;;;25.10;99.90;;;;;;5142805;27;20039;-64
2023/06/19 12:43:17;;;;;;;0.32;0.32;;;24.60;99.90;;;;;;5144630;27;20031;-64
2023/06/19 12:45:43;;;;;;;0.00;0.00;;;24.80;99.90;;;;;;5145757;27;20190;-63